sensor_id;sensor_type;location;lat;lon;timestamp;P1;durP1;ratioP1;P2;durP2;ratioP2
59972;SDS011;55298;-36.624;-64.282;2024-01-10T00:00:49;5.88;;;3.22;;
59972;SDS011;55298;-36.624;-64.282;2024-01-10T00:03:17;4.93;;;3.60;;
59972;SDS011;55298;-36.624;-64.282;2024-01-10T00:05:44;9.00;;;3.40;;
59972;SDS011;55298;-36.624;-64.282;2024-01-10T00:08:12;3.08;;;2.60;;
59972;SDS011;55298;-36.624;-64.282;2024-01-10T00:10:40;3.25;;;2.50;;
59972;SDS011;55298;-36.624;-64.282;2024-01-10T00:13:08;4.68;;;2.97;;
59972;SDS011;55298;-36.624;-64.282;2024-01-10T00:15:35;6.10;;;3.28;;
59972;SDS011;55298;-36.624;-64.282;2024-01-10T00:18:03;6.32;;;3.13;;
59972;SDS011;55298;-36.624;-64.282;2024-01-10T00:20:31;5.05;;;4.47;;
59972;SDS011;55298;-36.624;-64.282;2024-01-10T00:22:59;3.80;;;3.20;;
59972;SDS011;55298;-36.624;-64.282;2024-01-10T00:25:26;5.90;;;2.90;;
59972;SDS011;55298;-36.624;-64.282;2024-01-10T00:27:54;5.55;;;3.20;;
59972;SDS011;55298;-36.624;-64.282;2024-01-10T00:30:22;4.55;;;3.70;;
59972;SDS011;55298;-36.624;-64.282;2024-01-10T00:32:51;4.05;;;3.60;;
59972;SDS011;55298;-36.624;-64.282;2024-01-10T00:35:19;6.65;;;3.35;;
59972;SDS011;55298;-36.624;-64.282;2024-01-10T00:37:46;5.13;;;3.42;;
59972;SDS011;55298;-36.624;-64.282;2024-01-10T00:40:14;5.25;;;3.10;;
59972;SDS011;55298;-36.624;-64.282;2024-01-10T00:42:42;3.90;;;3.00;;
59972;SDS011;55298;-36.624;-64.282;2024-01-10T00:45:10;5.10;;;2.90;;
59972;SDS011;55298;-36.624;-64.282;2024-01-10T00:47:37;4.53;;;2.50;;
59972;SDS011;55298;-36.624;-64.282;2024-01-10T00:50:05;3.88;;;2.70;;
59972;SDS011;55298;-36.624;-64.282;2024-01-10T00:52:33;3.30;;;2.80;;
59972;SDS011;55298;-36.624;-64.282;2024-01-10T00:55:01;4.82;;;2.45;;
59972;SDS011;55298;-36.624;-64.282;2024-01-10T00:57:30;4.25;;;2.60;;
59972;SDS011;55298;-36.624;-64.282;2024-01-10T01:00:01;5.23;;;2.80;;
59972;SDS011;55298;-36.624;-64.282;2024-01-10T01:02:32;3.00;;;2.47;;
59972;SDS011;55298;-36.624;-64.282;2024-01-10T01:05:01;3.92;;;2.55;;
59972;SDS011;55298;-36.624;-64.282;2024-01-10T01:07:29;5.05;;;2.50;;
59972;SDS011;55298;-36.624;-64.282;2024-01-10T01:09:57;5.40;;;2.35;;
59972;SDS011;55298;-36.624;-64.282;2024-01-10T01:12:26;5.28;;;2.70;;
59972;SDS011;55298;-36.624;-64.282;2024-01-10T01:14:54;5.00;;;2.70;;
59972;SDS011;55298;-36.624;-64.282;2024-01-10T01:17:23;3.85;;;2.50;;
59972;SDS011;55298;-36.624;-64.282;2024-01-10T01:19:50;3.45;;;2.55;;
59972;SDS011;55298;-36.624;-64.282;2024-01-10T01:22:19;3.53;;;2.30;;
59972;SDS011;55298;-36.624;-64.282;2024-01-10T01:24:46;2.35;;;2.15;;
59972;SDS011;55298;-36.624;-64.282;2024-01-10T01:27:14;2.45;;;2.25;;
59972;SDS011;55298;-36.624;-64.282;2024-01-10T01:29:42;3.92;;;2.40;;
59972;SDS011;55298;-36.624;-64.282;2024-01-10T01:32:09;4.03;;;2.67;;
59972;SDS011;55298;-36.624;-64.282;2024-01-10T01:34:37;4.25;;;2.80;;
59972;SDS011;55298;-36.624;-64.282;2024-01-10T01:37:05;3.38;;;2.38;;
59972;SDS011;55298;-36.624;-64.282;2024-01-10T01:39:33;4.05;;;2.72;;
59972;SDS011;55298;-36.624;-64.282;2024-01-10T01:42:00;3.47;;;2.42;;
59972;SDS011;55298;-36.624;-64.282;2024-01-10T01:44:29;2.88;;;2.28;;
59972;SDS011;55298;-36.624;-64.282;2024-01-10T01:46:57;3.13;;;2.50;;
59972;SDS011;55298;-36.624;-64.282;2024-01-10T01:49:25;2.75;;;2.47;;
59972;SDS011;55298;-36.624;-64.282;2024-01-10T01:51:53;5.00;;;2.75;;
59972;SDS011;55298;-36.624;-64.282;2024-01-10T01:54:22;8.23;;;2.90;;
59972;SDS011;55298;-36.624;-64.282;2024-01-10T01:56:51;5.88;;;3.10;;
59972;SDS011;55298;-36.624;-64.282;2024-01-10T01:59:20;5.28;;;2.20;;
59972;SDS011;55298;-36.624;-64.282;2024-01-10T02:01:47;3.75;;;1.85;;
59972;SDS011;55298;-36.624;-64.282;2024-01-10T02:04:16;3.08;;;1.90;;
59972;SDS011;55298;-36.624;-64.282;2024-01-10T02:06:46;4.00;;;2.30;;
59972;SDS011;55298;-36.624;-64.282;2024-01-10T02:09:14;1.90;;;1.80;;
59972;SDS011;55298;-36.624;-64.282;2024-01-10T02:11:41;3.03;;;2.00;;
59972;SDS011;55298;-36.624;-64.282;2024-01-10T02:14:10;3.30;;;2.00;;
59972;SDS011;55298;-36.624;-64.282;2024-01-10T02:16:38;4.03;;;3.30;;
59972;SDS011;55298;-36.624;-64.282;2024-01-10T02:21:44;2.90;;;2.47;;
59972;SDS011;55298;-36.624;-64.282;2024-01-10T02:24:12;3.25;;;2.20;;
59972;SDS011;55298;-36.624;-64.282;2024-01-10T02:26:40;3.05;;;1.95;;
59972;SDS011;55298;-36.624;-64.282;2024-01-10T02:29:08;3.95;;;2.47;;
59972;SDS011;55298;-36.624;-64.282;2024-01-10T02:31:37;4.00;;;2.60;;
59972;SDS011;55298;-36.624;-64.282;2024-01-10T02:34:05;3.30;;;2.45;;
59972;SDS011;55298;-36.624;-64.282;2024-01-10T02:36:33;3.63;;;2.50;;
59972;SDS011;55298;-36.624;-64.282;2024-01-10T02:39:00;2.88;;;2.60;;
59972;SDS011;55298;-36.624;-64.282;2024-01-10T02:41:28;2.67;;;2.47;;
59972;SDS011;55298;-36.624;-64.282;2024-01-10T02:43:56;4.28;;;2.50;;
59972;SDS011;55298;-36.624;-64.282;2024-01-10T02:46:25;3.08;;;2.08;;
59972;SDS011;55298;-36.624;-64.282;2024-01-10T02:48:54;2.72;;;2.20;;
59972;SDS011;55298;-36.624;-64.282;2024-01-10T02:51:22;2.92;;;2.30;;
59972;SDS011;55298;-36.624;-64.282;2024-01-10T02:53:50;3.90;;;2.55;;
59972;SDS011;55298;-36.624;-64.282;2024-01-10T02:56:17;2.50;;;2.30;;
59972;SDS011;55298;-36.624;-64.282;2024-01-10T02:58:45;2.03;;;1.92;;
59972;SDS011;55298;-36.624;-64.282;2024-01-10T03:01:13;2.47;;;1.88;;
59972;SDS011;55298;-36.624;-64.282;2024-01-10T03:03:41;3.00;;;1.90;;
59972;SDS011;55298;-36.624;-64.282;2024-01-10T03:06:09;2.58;;;2.25;;
59972;SDS011;55298;-36.624;-64.282;2024-01-10T03:08:36;2.92;;;2.20;;
59972;SDS011;55298;-36.624;-64.282;2024-01-10T03:11:04;2.92;;;2.22;;
59972;SDS011;55298;-36.624;-64.282;2024-01-10T03:13:32;3.70;;;2.28;;
59972;SDS011;55298;-36.624;-64.282;2024-01-10T03:15:59;4.10;;;2.80;;
59972;SDS011;55298;-36.624;-64.282;2024-01-10T03:18:27;3.30;;;2.90;;
59972;SDS011;55298;-36.624;-64.282;2024-01-10T03:20:55;4.75;;;3.50;;
59972;SDS011;55298;-36.624;-64.282;2024-01-10T03:23:22;4.22;;;3.85;;
59972;SDS011;55298;-36.624;-64.282;2024-01-10T03:25:50;4.20;;;3.90;;
59972;SDS011;55298;-36.624;-64.282;2024-01-10T03:28:18;3.92;;;3.28;;
59972;SDS011;55298;-36.624;-64.282;2024-01-10T03:30:46;3.15;;;2.85;;
59972;SDS011;55298;-36.624;-64.282;2024-01-10T03:33:13;4.65;;;2.88;;
59972;SDS011;55298;-36.624;-64.282;2024-01-10T03:35:41;3.63;;;2.42;;
59972;SDS011;55298;-36.624;-64.282;2024-01-10T03:38:09;2.30;;;2.20;;
59972;SDS011;55298;-36.624;-64.282;2024-01-10T03:40:37;2.35;;;2.15;;
59972;SDS011;55298;-36.624;-64.282;2024-01-10T03:43:05;4.43;;;2.70;;
59972;SDS011;55298;-36.624;-64.282;2024-01-10T03:45:32;2.90;;;2.20;;
59972;SDS011;55298;-36.624;-64.282;2024-01-10T03:48:00;3.85;;;2.30;;
59972;SDS011;55298;-36.624;-64.282;2024-01-10T03:50:27;4.82;;;2.70;;
59972;SDS011;55298;-36.624;-64.282;2024-01-10T03:52:55;4.10;;;2.40;;
59972;SDS011;55298;-36.624;-64.282;2024-01-10T03:55:23;3.72;;;2.90;;
59972;SDS011;55298;-36.624;-64.282;2024-01-10T03:57:51;3.35;;;3.05;;
59972;SDS011;55298;-36.624;-64.282;2024-01-10T04:00:18;4.10;;;3.70;;
59972;SDS011;55298;-36.624;-64.282;2024-01-10T04:02:47;4.07;;;3.40;;
59972;SDS011;55298;-36.624;-64.282;2024-01-10T04:05:15;3.67;;;3.38;;
59972;SDS011;55298;-36.624;-64.282;2024-01-10T04:07:42;2.83;;;2.63;;
59972;SDS011;55298;-36.624;-64.282;2024-01-10T04:10:10;3.15;;;2.83;;
59972;SDS011;55298;-36.624;-64.282;2024-01-10T04:12:40;2.90;;;2.70;;
59972;SDS011;55298;-36.624;-64.282;2024-01-10T04:15:08;2.78;;;2.55;;
59972;SDS011;55298;-36.624;-64.282;2024-01-10T04:17:35;2.33;;;2.20;;
59972;SDS011;55298;-36.624;-64.282;2024-01-10T04:20:03;2.63;;;2.33;;
59972;SDS011;55298;-36.624;-64.282;2024-01-10T04:22:32;3.03;;;2.20;;
59972;SDS011;55298;-36.624;-64.282;2024-01-10T04:25:00;2.40;;;2.20;;
59972;SDS011;55298;-36.624;-64.282;2024-01-10T04:27:29;2.60;;;2.15;;
59972;SDS011;55298;-36.624;-64.282;2024-01-10T04:29:56;2.30;;;2.20;;
59972;SDS011;55298;-36.624;-64.282;2024-01-10T04:32:24;2.60;;;2.40;;
59972;SDS011;55298;-36.624;-64.282;2024-01-10T04:34:52;3.05;;;2.20;;
59972;SDS011;55298;-36.624;-64.282;2024-01-10T04:37:20;2.58;;;2.35;;
59972;SDS011;55298;-36.624;-64.282;2024-01-10T04:39:48;3.58;;;2.38;;
59972;SDS011;55298;-36.624;-64.282;2024-01-10T04:42:15;2.47;;;2.28;;
59972;SDS011;55298;-36.624;-64.282;2024-01-10T04:44:43;2.53;;;2.33;;
59972;SDS011;55298;-36.624;-64.282;2024-01-10T04:47:11;4.45;;;2.33;;
59972;SDS011;55298;-36.624;-64.282;2024-01-10T04:49:38;2.80;;;2.10;;
59972;SDS011;55298;-36.624;-64.282;2024-01-10T04:52:06;3.40;;;2.20;;
59972;SDS011;55298;-36.624;-64.282;2024-01-10T04:54:34;2.60;;;2.40;;
59972;SDS011;55298;-36.624;-64.282;2024-01-10T04:57:01;2.45;;;2.25;;
59972;SDS011;55298;-36.624;-64.282;2024-01-10T04:59:29;2.75;;;1.90;;
59972;SDS011;55298;-36.624;-64.282;2024-01-10T05:01:56;2.35;;;1.95;;
59972;SDS011;55298;-36.624;-64.282;2024-01-10T05:04:24;2.00;;;1.90;;
59972;SDS011;55298;-36.624;-64.282;2024-01-10T05:06:52;2.00;;;1.90;;
59972;SDS011;55298;-36.624;-64.282;2024-01-10T05:09:19;1.75;;;1.65;;
59972;SDS011;55298;-36.624;-64.282;2024-01-10T05:11:47;2.05;;;1.95;;
59972;SDS011;55298;-36.624;-64.282;2024-01-10T05:14:17;2.00;;;1.90;;
59972;SDS011;55298;-36.624;-64.282;2024-01-10T05:16:45;2.88;;;2.17;;
59972;SDS011;55298;-36.624;-64.282;2024-01-10T05:19:13;5.13;;;2.10;;
59972;SDS011;55298;-36.624;-64.282;2024-01-10T05:21:41;2.67;;;2.35;;
59972;SDS011;55298;-36.624;-64.282;2024-01-10T05:24:09;3.03;;;2.30;;
59972;SDS011;55298;-36.624;-64.282;2024-01-10T05:26:38;3.20;;;2.10;;
59972;SDS011;55298;-36.624;-64.282;2024-01-10T05:29:06;1.98;;;1.88;;
59972;SDS011;55298;-36.624;-64.282;2024-01-10T05:31:34;2.47;;;2.28;;
59972;SDS011;55298;-36.624;-64.282;2024-01-10T05:34:02;3.10;;;2.13;;
59972;SDS011;55298;-36.624;-64.282;2024-01-10T05:36:30;2.92;;;2.47;;
59972;SDS011;55298;-36.624;-64.282;2024-01-10T05:38:59;4.75;;;2.63;;
59972;SDS011;55298;-36.624;-64.282;2024-01-10T05:41:27;2.70;;;2.50;;
59972;SDS011;55298;-36.624;-64.282;2024-01-10T05:43:55;2.67;;;2.58;;
59972;SDS011;55298;-36.624;-64.282;2024-01-10T05:46:23;2.60;;;2.40;;
59972;SDS011;55298;-36.624;-64.282;2024-01-10T05:48:50;2.47;;;2.38;;
59972;SDS011;55298;-36.624;-64.282;2024-01-10T05:51:18;2.50;;;2.40;;
59972;SDS011;55298;-36.624;-64.282;2024-01-10T05:53:49;2.78;;;2.50;;
59972;SDS011;55298;-36.624;-64.282;2024-01-10T05:56:16;2.50;;;2.40;;
59972;SDS011;55298;-36.624;-64.282;2024-01-10T05:58:44;5.30;;;3.03;;
59972;SDS011;55298;-36.624;-64.282;2024-01-10T06:01:11;2.90;;;2.80;;
59972;SDS011;55298;-36.624;-64.282;2024-01-10T06:03:39;3.28;;;3.08;;
59972;SDS011;55298;-36.624;-64.282;2024-01-10T06:06:06;3.78;;;3.47;;
59972;SDS011;55298;-36.624;-64.282;2024-01-10T06:08:35;4.88;;;3.40;;
59972;SDS011;55298;-36.624;-64.282;2024-01-10T06:11:03;3.50;;;3.30;;
59972;SDS011;55298;-36.624;-64.282;2024-01-10T06:13:35;3.30;;;3.10;;
59972;SDS011;55298;-36.624;-64.282;2024-01-10T06:16:04;3.65;;;3.38;;
59972;SDS011;55298;-36.624;-64.282;2024-01-10T06:18:33;3.70;;;3.40;;
59972;SDS011;55298;-36.624;-64.282;2024-01-10T06:21:01;4.00;;;3.70;;
59972;SDS011;55298;-36.624;-64.282;2024-01-10T06:23:30;3.78;;;3.53;;
59972;SDS011;55298;-36.624;-64.282;2024-01-10T06:25:58;3.55;;;3.35;;
59972;SDS011;55298;-36.624;-64.282;2024-01-10T06:28:26;3.28;;;3.08;;
59972;SDS011;55298;-36.624;-64.282;2024-01-10T06:30:54;3.60;;;3.40;;
59972;SDS011;55298;-36.624;-64.282;2024-01-10T06:33:22;3.80;;;3.50;;
59972;SDS011;55298;-36.624;-64.282;2024-01-10T06:35:50;4.18;;;3.53;;
59972;SDS011;55298;-36.624;-64.282;2024-01-10T06:38:19;3.75;;;3.10;;
59972;SDS011;55298;-36.624;-64.282;2024-01-10T06:40:48;3.25;;;3.05;;
59972;SDS011;55298;-36.624;-64.282;2024-01-10T06:43:16;2.97;;;2.88;;
59972;SDS011;55298;-36.624;-64.282;2024-01-10T06:45:44;3.25;;;2.75;;
59972;SDS011;55298;-36.624;-64.282;2024-01-10T06:48:13;3.22;;;2.50;;
59972;SDS011;55298;-36.624;-64.282;2024-01-10T06:50:41;2.60;;;2.50;;
59972;SDS011;55298;-36.624;-64.282;2024-01-10T06:53:10;2.53;;;2.33;;
59972;SDS011;55298;-36.624;-64.282;2024-01-10T06:55:38;2.40;;;2.20;;
59972;SDS011;55298;-36.624;-64.282;2024-01-10T06:58:06;2.63;;;2.42;;
59972;SDS011;55298;-36.624;-64.282;2024-01-10T07:00:34;4.82;;;2.45;;
59972;SDS011;55298;-36.624;-64.282;2024-01-10T07:03:04;3.03;;;2.30;;
59972;SDS011;55298;-36.624;-64.282;2024-01-10T07:05:32;4.05;;;2.45;;
59972;SDS011;55298;-36.624;-64.282;2024-01-10T07:08:01;3.72;;;2.60;;
59972;SDS011;55298;-36.624;-64.282;2024-01-10T07:10:29;3.83;;;2.65;;
59972;SDS011;55298;-36.624;-64.282;2024-01-10T07:12:57;3.63;;;2.70;;
59972;SDS011;55298;-36.624;-64.282;2024-01-10T07:15:30;6.38;;;3.05;;
59972;SDS011;55298;-36.624;-64.282;2024-01-10T07:17:57;3.53;;;2.47;;
59972;SDS011;55298;-36.624;-64.282;2024-01-10T07:20:25;7.32;;;2.70;;
59972;SDS011;55298;-36.624;-64.282;2024-01-10T07:22:53;4.25;;;2.60;;
59972;SDS011;55298;-36.624;-64.282;2024-01-10T07:25:21;3.95;;;2.78;;
59972;SDS011;55298;-36.624;-64.282;2024-01-10T07:27:51;5.10;;;2.90;;
59972;SDS011;55298;-36.624;-64.282;2024-01-10T07:30:19;6.10;;;2.78;;
59972;SDS011;55298;-36.624;-64.282;2024-01-10T07:32:47;5.72;;;2.80;;
59972;SDS011;55298;-36.624;-64.282;2024-01-10T07:35:15;6.78;;;3.22;;
59972;SDS011;55298;-36.624;-64.282;2024-01-10T07:37:43;5.97;;;2.90;;
59972;SDS011;55298;-36.624;-64.282;2024-01-10T07:40:11;6.32;;;2.78;;
59972;SDS011;55298;-36.624;-64.282;2024-01-10T07:42:39;8.10;;;3.00;;
59972;SDS011;55298;-36.624;-64.282;2024-01-10T07:45:07;7.93;;;3.15;;
59972;SDS011;55298;-36.624;-64.282;2024-01-10T07:47:35;5.03;;;2.72;;
59972;SDS011;55298;-36.624;-64.282;2024-01-10T07:50:07;7.15;;;3.55;;
59972;SDS011;55298;-36.624;-64.282;2024-01-10T07:52:40;8.00;;;2.80;;
59972;SDS011;55298;-36.624;-64.282;2024-01-10T07:55:09;7.00;;;2.78;;
59972;SDS011;55298;-36.624;-64.282;2024-01-10T07:57:37;9.43;;;3.60;;
59972;SDS011;55298;-36.624;-64.282;2024-01-10T08:00:06;9.75;;;3.95;;
59972;SDS011;55298;-36.624;-64.282;2024-01-10T08:02:36;6.75;;;2.72;;
59972;SDS011;55298;-36.624;-64.282;2024-01-10T08:05:05;6.32;;;3.35;;
59972;SDS011;55298;-36.624;-64.282;2024-01-10T08:07:35;8.70;;;3.15;;
59972;SDS011;55298;-36.624;-64.282;2024-01-10T08:10:08;8.02;;;3.38;;
59972;SDS011;55298;-36.624;-64.282;2024-01-10T08:12:37;8.13;;;3.35;;
59972;SDS011;55298;-36.624;-64.282;2024-01-10T08:15:06;11.75;;;3.80;;
59972;SDS011;55298;-36.624;-64.282;2024-01-10T08:17:34;5.75;;;3.00;;
59972;SDS011;55298;-36.624;-64.282;2024-01-10T08:20:05;9.70;;;3.40;;
59972;SDS011;55298;-36.624;-64.282;2024-01-10T08:22:33;7.63;;;2.80;;
59972;SDS011;55298;-36.624;-64.282;2024-01-10T08:25:01;5.55;;;3.00;;
59972;SDS011;55298;-36.624;-64.282;2024-01-10T08:27:30;9.20;;;3.20;;
59972;SDS011;55298;-36.624;-64.282;2024-01-10T08:29:59;7.47;;;3.10;;
59972;SDS011;55298;-36.624;-64.282;2024-01-10T08:32:30;8.77;;;2.75;;
59972;SDS011;55298;-36.624;-64.282;2024-01-10T08:35:00;6.30;;;3.10;;
59972;SDS011;55298;-36.624;-64.282;2024-01-10T08:37:30;9.07;;;2.83;;
59972;SDS011;55298;-36.624;-64.282;2024-01-10T08:39:59;9.02;;;3.30;;
59972;SDS011;55298;-36.624;-64.282;2024-01-10T08:42:32;9.93;;;3.35;;
59972;SDS011;55298;-36.624;-64.282;2024-01-10T08:45:01;8.60;;;2.83;;
59972;SDS011;55298;-36.624;-64.282;2024-01-10T08:47:30;7.93;;;3.33;;
59972;SDS011;55298;-36.624;-64.282;2024-01-10T08:50:00;9.50;;;2.88;;
59972;SDS011;55298;-36.624;-64.282;2024-01-10T08:52:35;8.43;;;3.30;;
59972;SDS011;55298;-36.624;-64.282;2024-01-10T08:55:05;5.95;;;3.00;;
59972;SDS011;55298;-36.624;-64.282;2024-01-10T08:57:33;7.00;;;2.97;;
59972;SDS011;55298;-36.624;-64.282;2024-01-10T09:00:02;11.00;;;3.53;;
59972;SDS011;55298;-36.624;-64.282;2024-01-10T09:02:32;12.48;;;3.53;;
59972;SDS011;55298;-36.624;-64.282;2024-01-10T09:05:02;11.15;;;4.18;;
59972;SDS011;55298;-36.624;-64.282;2024-01-10T09:07:33;11.30;;;3.55;;
59972;SDS011;55298;-36.624;-64.282;2024-01-10T09:10:00;9.90;;;3.80;;
59972;SDS011;55298;-36.624;-64.282;2024-01-10T09:12:31;10.93;;;3.25;;
59972;SDS011;55298;-36.624;-64.282;2024-01-10T09:14:59;7.47;;;3.22;;
59972;SDS011;55298;-36.624;-64.282;2024-01-10T09:17:28;10.77;;;4.15;;
59972;SDS011;55298;-36.624;-64.282;2024-01-10T09:19:56;8.43;;;3.65;;
59972;SDS011;55298;-36.624;-64.282;2024-01-10T09:22:24;14.43;;;3.70;;
59972;SDS011;55298;-36.624;-64.282;2024-01-10T09:24:52;9.57;;;3.20;;
59972;SDS011;55298;-36.624;-64.282;2024-01-10T09:27:20;12.20;;;3.83;;
59972;SDS011;55298;-36.624;-64.282;2024-01-10T09:29:49;10.48;;;3.65;;
59972;SDS011;55298;-36.624;-64.282;2024-01-10T09:32:16;12.00;;;4.03;;
59972;SDS011;55298;-36.624;-64.282;2024-01-10T09:34:44;6.80;;;3.33;;
59972;SDS011;55298;-36.624;-64.282;2024-01-10T09:37:12;12.45;;;3.63;;
59972;SDS011;55298;-36.624;-64.282;2024-01-10T09:39:40;11.90;;;3.53;;
59972;SDS011;55298;-36.624;-64.282;2024-01-10T09:42:08;11.05;;;3.80;;
59972;SDS011;55298;-36.624;-64.282;2024-01-10T09:44:36;11.05;;;3.45;;
59972;SDS011;55298;-36.624;-64.282;2024-01-10T09:47:05;9.50;;;3.22;;
59972;SDS011;55298;-36.624;-64.282;2024-01-10T09:49:33;10.25;;;3.88;;
59972;SDS011;55298;-36.624;-64.282;2024-01-10T09:52:03;9.07;;;3.55;;
59972;SDS011;55298;-36.624;-64.282;2024-01-10T09:54:33;11.02;;;3.67;;
59972;SDS011;55298;-36.624;-64.282;2024-01-10T09:57:04;9.90;;;3.53;;
59972;SDS011;55298;-36.624;-64.282;2024-01-10T09:59:32;9.70;;;3.53;;
59972;SDS011;55298;-36.624;-64.282;2024-01-10T10:01:59;11.32;;;3.55;;
59972;SDS011;55298;-36.624;-64.282;2024-01-10T10:04:30;12.38;;;3.83;;
59972;SDS011;55298;-36.624;-64.282;2024-01-10T10:06:59;12.77;;;3.40;;
59972;SDS011;55298;-36.624;-64.282;2024-01-10T10:09:27;10.73;;;4.30;;
59972;SDS011;55298;-36.624;-64.282;2024-01-10T10:11:58;11.60;;;3.92;;
59972;SDS011;55298;-36.624;-64.282;2024-01-10T10:14:28;10.60;;;3.53;;
59972;SDS011;55298;-36.624;-64.282;2024-01-10T10:16:56;12.57;;;3.35;;
59972;SDS011;55298;-36.624;-64.282;2024-01-10T10:19:47;13.80;;;3.53;;
59972;SDS011;55298;-36.624;-64.282;2024-01-10T10:22:30;12.45;;;4.22;;
59972;SDS011;55298;-36.624;-64.282;2024-01-10T10:24:58;7.85;;;3.15;;
59972;SDS011;55298;-36.624;-64.282;2024-01-10T10:27:29;10.80;;;3.15;;
59972;SDS011;55298;-36.624;-64.282;2024-01-10T10:29:58;9.77;;;2.90;;
59972;SDS011;55298;-36.624;-64.282;2024-01-10T10:32:27;7.68;;;2.90;;
59972;SDS011;55298;-36.624;-64.282;2024-01-10T10:34:56;9.88;;;3.30;;
59972;SDS011;55298;-36.624;-64.282;2024-01-10T10:37:27;8.60;;;3.30;;
59972;SDS011;55298;-36.624;-64.282;2024-01-10T10:39:55;7.63;;;3.10;;
59972;SDS011;55298;-36.624;-64.282;2024-01-10T10:42:29;11.00;;;3.55;;
59972;SDS011;55298;-36.624;-64.282;2024-01-10T10:45:02;12.63;;;3.13;;
59972;SDS011;55298;-36.624;-64.282;2024-01-10T10:47:30;8.38;;;3.20;;
59972;SDS011;55298;-36.624;-64.282;2024-01-10T10:50:04;11.57;;;4.00;;
59972;SDS011;55298;-36.624;-64.282;2024-01-10T10:52:34;7.20;;;3.10;;
59972;SDS011;55298;-36.624;-64.282;2024-01-10T10:55:03;12.02;;;3.45;;
59972;SDS011;55298;-36.624;-64.282;2024-01-10T10:57:32;10.45;;;3.88;;
59972;SDS011;55298;-36.624;-64.282;2024-01-10T11:00:00;8.00;;;2.72;;
59972;SDS011;55298;-36.624;-64.282;2024-01-10T11:02:33;8.25;;;2.97;;
59972;SDS011;55298;-36.624;-64.282;2024-01-10T11:05:09;9.32;;;2.90;;
59972;SDS011;55298;-36.624;-64.282;2024-01-10T11:07:38;8.43;;;2.88;;
59972;SDS011;55298;-36.624;-64.282;2024-01-10T11:10:11;10.30;;;2.90;;
59972;SDS011;55298;-36.624;-64.282;2024-01-10T11:12:55;8.60;;;2.90;;
59972;SDS011;55298;-36.624;-64.282;2024-01-10T11:15:44;9.57;;;3.25;;
59972;SDS011;55298;-36.624;-64.282;2024-01-10T11:21:21;9.23;;;2.60;;
59972;SDS011;55298;-36.624;-64.282;2024-01-10T11:24:03;7.00;;;2.90;;
59972;SDS011;55298;-36.624;-64.282;2024-01-10T11:26:37;9.75;;;3.50;;
59972;SDS011;55298;-36.624;-64.282;2024-01-10T11:29:05;7.85;;;2.85;;
59972;SDS011;55298;-36.624;-64.282;2024-01-10T11:31:35;7.80;;;2.80;;
59972;SDS011;55298;-36.624;-64.282;2024-01-10T11:34:06;8.90;;;6.25;;
59972;SDS011;55298;-36.624;-64.282;2024-01-10T11:36:39;7.63;;;2.83;;
59972;SDS011;55298;-36.624;-64.282;2024-01-10T11:39:26;9.32;;;2.72;;
59972;SDS011;55298;-36.624;-64.282;2024-01-10T11:41:55;7.97;;;2.33;;
59972;SDS011;55298;-36.624;-64.282;2024-01-10T11:44:27;6.90;;;2.55;;
59972;SDS011;55298;-36.624;-64.282;2024-01-10T11:47:00;9.00;;;2.95;;
59972;SDS011;55298;-36.624;-64.282;2024-01-10T11:49:30;6.20;;;2.88;;
59972;SDS011;55298;-36.624;-64.282;2024-01-10T11:51:58;5.80;;;2.58;;
59972;SDS011;55298;-36.624;-64.282;2024-01-10T11:54:37;6.30;;;2.42;;
59972;SDS011;55298;-36.624;-64.282;2024-01-10T11:57:08;5.63;;;2.40;;
59972;SDS011;55298;-36.624;-64.282;2024-01-10T11:59:41;4.57;;;2.63;;
59972;SDS011;55298;-36.624;-64.282;2024-01-10T12:02:11;7.97;;;2.60;;
59972;SDS011;55298;-36.624;-64.282;2024-01-10T12:04:42;10.05;;;2.83;;
59972;SDS011;55298;-36.624;-64.282;2024-01-10T12:07:11;5.35;;;2.47;;
59972;SDS011;55298;-36.624;-64.282;2024-01-10T12:09:41;5.45;;;2.20;;
59972;SDS011;55298;-36.624;-64.282;2024-01-10T12:12:08;7.57;;;2.30;;
59972;SDS011;55298;-36.624;-64.282;2024-01-10T12:14:37;6.38;;;2.40;;
59972;SDS011;55298;-36.624;-64.282;2024-01-10T12:17:05;4.70;;;2.08;;
59972;SDS011;55298;-36.624;-64.282;2024-01-10T12:19:35;4.80;;;2.15;;
59972;SDS011;55298;-36.624;-64.282;2024-01-10T12:22:04;6.40;;;2.47;;
59972;SDS011;55298;-36.624;-64.282;2024-01-10T12:24:33;5.50;;;2.60;;
59972;SDS011;55298;-36.624;-64.282;2024-01-10T12:27:05;5.63;;;2.40;;
59972;SDS011;55298;-36.624;-64.282;2024-01-10T12:29:33;5.35;;;2.50;;
59972;SDS011;55298;-36.624;-64.282;2024-01-10T12:32:01;5.53;;;2.45;;
59972;SDS011;55298;-36.624;-64.282;2024-01-10T12:34:29;5.65;;;2.92;;
59972;SDS011;55298;-36.624;-64.282;2024-01-10T12:36:58;6.10;;;2.38;;
59972;SDS011;55298;-36.624;-64.282;2024-01-10T12:39:26;5.10;;;2.42;;
59972;SDS011;55298;-36.624;-64.282;2024-01-10T12:41:57;6.97;;;2.80;;
59972;SDS011;55298;-36.624;-64.282;2024-01-10T12:44:33;4.32;;;1.90;;
59972;SDS011;55298;-36.624;-64.282;2024-01-10T12:47:01;6.75;;;2.30;;
59972;SDS011;55298;-36.624;-64.282;2024-01-10T12:49:29;4.50;;;2.17;;
59972;SDS011;55298;-36.624;-64.282;2024-01-10T12:51:57;10.48;;;4.55;;
59972;SDS011;55298;-36.624;-64.282;2024-01-10T12:54:25;6.28;;;2.33;;
59972;SDS011;55298;-36.624;-64.282;2024-01-10T12:56:53;5.05;;;1.92;;
59972;SDS011;55298;-36.624;-64.282;2024-01-10T12:59:23;5.95;;;2.08;;
59972;SDS011;55298;-36.624;-64.282;2024-01-10T13:01:50;4.75;;;2.25;;
59972;SDS011;55298;-36.624;-64.282;2024-01-10T13:04:19;5.60;;;2.17;;
59972;SDS011;55298;-36.624;-64.282;2024-01-10T13:06:46;6.57;;;2.03;;
59972;SDS011;55298;-36.624;-64.282;2024-01-10T13:09:14;4.70;;;2.30;;
59972;SDS011;55298;-36.624;-64.282;2024-01-10T13:11:42;10.10;;;5.43;;
59972;SDS011;55298;-36.624;-64.282;2024-01-10T13:14:12;4.22;;;2.67;;
59972;SDS011;55298;-36.624;-64.282;2024-01-10T13:16:43;4.60;;;2.50;;
59972;SDS011;55298;-36.624;-64.282;2024-01-10T13:19:12;5.00;;;2.20;;
59972;SDS011;55298;-36.624;-64.282;2024-01-10T13:21:41;11.77;;;8.18;;
59972;SDS011;55298;-36.624;-64.282;2024-01-10T13:24:08;3.97;;;2.30;;
59972;SDS011;55298;-36.624;-64.282;2024-01-10T13:26:36;4.95;;;2.25;;
59972;SDS011;55298;-36.624;-64.282;2024-01-10T13:29:06;4.55;;;3.05;;
59972;SDS011;55298;-36.624;-64.282;2024-01-10T13:31:39;5.50;;;3.20;;
59972;SDS011;55298;-36.624;-64.282;2024-01-10T13:34:07;5.25;;;2.60;;
59972;SDS011;55298;-36.624;-64.282;2024-01-10T13:36:39;3.92;;;1.92;;
59972;SDS011;55298;-36.624;-64.282;2024-01-10T13:39:07;4.43;;;1.98;;
59972;SDS011;55298;-36.624;-64.282;2024-01-10T13:41:40;3.80;;;2.10;;
59972;SDS011;55298;-36.624;-64.282;2024-01-10T13:44:08;4.78;;;2.85;;
59972;SDS011;55298;-36.624;-64.282;2024-01-10T13:46:37;5.07;;;2.53;;
59972;SDS011;55298;-36.624;-64.282;2024-01-10T13:49:07;7.72;;;5.65;;
59972;SDS011;55298;-36.624;-64.282;2024-01-10T13:51:35;5.80;;;2.55;;
59972;SDS011;55298;-36.624;-64.282;2024-01-10T13:54:03;5.07;;;3.53;;
59972;SDS011;55298;-36.624;-64.282;2024-01-10T13:56:30;4.68;;;2.30;;
59972;SDS011;55298;-36.624;-64.282;2024-01-10T13:58:59;4.60;;;3.03;;
59972;SDS011;55298;-36.624;-64.282;2024-01-10T14:01:28;4.65;;;3.20;;
59972;SDS011;55298;-36.624;-64.282;2024-01-10T14:03:56;4.97;;;4.00;;
59972;SDS011;55298;-36.624;-64.282;2024-01-10T14:06:25;7.63;;;4.70;;
59972;SDS011;55298;-36.624;-64.282;2024-01-10T14:08:56;3.17;;;2.00;;
59972;SDS011;55298;-36.624;-64.282;2024-01-10T14:11:25;4.65;;;1.80;;
59972;SDS011;55298;-36.624;-64.282;2024-01-10T14:13:52;5.70;;;2.78;;
59972;SDS011;55298;-36.624;-64.282;2024-01-10T14:16:20;9.38;;;5.20;;
59972;SDS011;55298;-36.624;-64.282;2024-01-10T14:18:48;5.68;;;2.60;;
59972;SDS011;55298;-36.624;-64.282;2024-01-10T14:21:16;3.85;;;2.05;;
59972;SDS011;55298;-36.624;-64.282;2024-01-10T14:23:45;7.03;;;2.42;;